Name Number Booked At
BOEHME, NANCY  288718 16:16:40 01/21/2021
Arrest Date Arresting Agency Court Billing Agency Bond Type Bond Amount Warrant/Citation# Description
16:24:40 01/21/2021 OSA OTHR OSA $NaN XZ0071482 DUI
BOUTTE, TERRENCE G 288069 17:23:00 01/04/2021
Arrest Date Arresting Agency Court Billing Agency Bond Type Bond Amount Warrant/Citation# Description
17:23:00 01/04/2021 FPD FWM FWPD Cash or Bond $10,000 XZ0699172 EXPOSING MINOR CHILD TO DV
17:23:00 01/04/2021 FPD FWM FWPD Cash or Bond $10,000 XZ0699172 ASSAULT 4
17:23:00 01/04/2021 FPD FWM FWPD Cash or Bond $10,000 1A00096824 VIOLATION OF NO CONTACT ORDER
CHRISTENSON, JASON ALAN 287393 14:45:00 12/14/2020
Arrest Date Arresting Agency Court Billing Agency Bond Type Bond Amount Warrant/Citation# Description
13:45:00 12/14/2020 FPD FWM FWPD Cash or Bond $0 8Z465443 VIOLATION OF PROTECTION ORDER
13:45:00 12/14/2020 FPD FWM FWPD Cash or Bond $0 8Z547329 ASSAULT 4
13:45:00 12/14/2020 FPD FWM FWPD Cash or Bond $0 8Z547329 EXPOSING MINOR TO DV
13:45:00 12/14/2020 FPD FWM FWPD Cash or Bond $0 XZ884623 VIOLATION OF PROTECTION ORDER
COFFIA, TIMOTHY LUKE 288636 17:00:00 01/19/2021
Arrest Date Arresting Agency Court Billing Agency Bond Type Bond Amount Warrant/Citation# Description
16:00:00 01/19/2021 FPD FWM FWPD Cash or Bond $10,000 1A0200041 MALICIOUS MISCHIEF 3RD
DANCE, COREY DEWAYNE 278968 15:13:08 04/14/2020
Arrest Date Arresting Agency Court Billing Agency Bond Type Bond Amount Warrant/Citation# Description
15:16:30 04/14/2020 FPD FWM FWPD Cash or Bond $7,500 XZ0302205 ASSAULT 4/DV
15:16:30 04/14/2020 FPD FWM FWPD Cash or Bond $7,500 XZ0302205 MALICIOUS MISCHIEF 3RD-DV
DEMPSEY, STEVEN JEFFREY 67829 18:46:13 11/05/2020
Arrest Date Arresting Agency Court Billing Agency Bond Type Bond Amount Warrant/Citation# Description
18:54:12 11/05/2020 ISS IQM ISS $NaN XZ0177487 DUI
DORSEY, WALTER JR 288498 16:08:22 01/15/2021
Arrest Date Arresting Agency Court Billing Agency Bond Type Bond Amount Warrant/Citation# Description
16:14:43 01/15/2021 FPD FWM FWPD Cash or Bond $5,000 1A0188267 VIOLATION OF PROTECTION ORDER
16:14:43 01/15/2021 FPD FWM FWPD Cash or Bond $5,000 1A0188267 HARASSMENT
FERNANDEZ, OSCAR ISRAEL 282680 17:23:20 08/15/2020
Arrest Date Arresting Agency Court Billing Agency Bond Type Bond Amount Warrant/Citation# Description
17:25:28 08/15/2020 ISS IQM ISS Cash or Bond $0 XZ0581088 PHYSIC CONT W INTOX
FLOWERS, EMANULEK ELLIOTT 288321 13:00:00 01/11/2021
Arrest Date Arresting Agency Court Billing Agency Bond Type Bond Amount Warrant/Citation# Description
13:23:01 01/11/2021 FPD FWM FWPD $NaN 9Z0666268 ASSAULT 4
13:23:01 01/11/2021 FPD FWM FWPD $NaN 9Z0666268 ASSAULT 4
GOFORTH, CEDAR TERRES 10512 14:17:27 12/04/2020
Arrest Date Arresting Agency Court Billing Agency Bond Type Bond Amount Warrant/Citation# Description
14:19:49 12/04/2020 SNO IQM SNO Cash or Bond $100,000 XZ0371606 PHYSIC CONT W INTOX
14:19:49 12/04/2020 SNO IQM NBPD Cash or Bond $500 XZ0682416 POSS DRUG PARAPHEN
14:19:49 12/04/2020 SNO IQM NBPD Cash or Bond $250 XZ0599053 FORGERY - ATTEMPT
GRAY, EARL FRANCIS 118051 13:30:00 11/07/2020
Arrest Date Arresting Agency Court Billing Agency Bond Type Bond Amount Warrant/Citation# Description
13:42:54 11/07/2020 SNO IQM SNO Cash or Bond $0 XZ0755461 FTOBEY POLICE OFCR
13:42:54 11/07/2020 SNO IQM SNO Cash or Bond $0 XZ0755461 DWLS (3)
13:42:54 11/07/2020 SNO IQM SNO Cash or Bond $1,000 XZ0755461 IGNITION INTERLOCK REQUIRED
13:42:54 11/07/2020 SNO IQM SNO Cash or Bond $0 XZ0755462 POSS DRUG PARAPHEN
13:42:54 11/07/2020 SNO IQM SNO Cash or Bond $0 XZ0371603 OBSTRUCTION OF PUBLIC SERVANT
13:42:54 11/07/2020 SNO IQM SNO Cash or Bond $0 XZ0371603 RESISTING ARREST
13:42:54 11/07/2020 SNO IQM SNO Cash or Bond $0 XZ0573768 OBSTRUCTING
13:42:54 11/07/2020 SNO IQM SNO Cash or Bond $0 9Z0526069 THEFT 3RD DEG
13:42:54 11/07/2020 SNO IQM SNO Cash or Bond $0 9Z0802008 POSSESSION OF ANOTHERS IDENTIT
HAGEN, STEVEN LINDSEY 288736 03:04:52 01/22/2021
Arrest Date Arresting Agency Court Billing Agency Bond Type Bond Amount Warrant/Citation# Description
03:11:37 01/22/2021 SAMM IDC SAMM No Bail $1,000,000,000 C21002366 ASSAULT 4/DV
03:11:37 01/22/2021 SAMM IDC SAMM No Bail $1,000,000,000 C21-002356 ASSAULT 4/DV
HARDY, KHYREE MALIK 286271 14:50:00 11/05/2020
Arrest Date Arresting Agency Court Billing Agency Bond Type Bond Amount Warrant/Citation# Description
13:50:00 11/05/2020 FPD FWM FWPD Cash or Bond $10,000 XZ748562 VIOLATION OF NO CONTACT ORDER
KEASAL, JASON ERIC 132426 19:47:58 12/20/2020
Arrest Date Arresting Agency Court Billing Agency Bond Type Bond Amount Warrant/Citation# Description
19:49:39 12/20/2020 ISS IQM ISS No Bail $5,000 XZ0479679 MALICIOUS MISCHIEF 3RD
19:49:39 12/20/2020 ISS IQM ISS No Bail $5,000 XZ020976A VIOL ANTIHARAS PROTE
19:49:39 12/20/2020 ISS IQM ISS No Bail $5,000 XZ024512A MALICIOUS MISCHIEF 3RD
19:49:39 12/20/2020 ISS IQM ISS No Bail $5,000 XZ024512A VIOL ANTIHARAS PROTE
19:49:39 12/20/2020 ISS IQM ISS No Bail $5,000 XZ024512A VIOL ANTIHARAS PROTE
19:49:39 12/20/2020 ISS IQM ISS No Bail $5,000 XZ019968A THEFT 3RD DEG
19:49:39 12/20/2020 ISS IQM ISS No Bail $5,000 XZ019968A POSS DRUG PARAPHEN
19:49:39 12/20/2020 ISS IQM ISS No Bail $5,000 XZ039627A MALICIOUS MISCHIEF 3RD
19:49:39 12/20/2020 ISS IQM ISS No Bail $5,000 XZ039627A POSSESSION OF DANGEROUS WEAPON
19:49:39 12/20/2020 ISS IQM ISS No Bail $5,000 XZ020976B ASSAULT 4
19:49:39 12/20/2020 ISS IQM ISS No Bail $5,000 XZ078108A ASSAULT 4
19:49:39 12/20/2020 ISS IQM ISS No Bail $5,000 XZ019802A ASSAULT 4
19:49:39 12/20/2020 ISS IQM ISS No Bail $5,000 XZ019802A MALICIOUS MISCHIEF 3RD
KUCHUKOVA, ELVINA  281492 17:25:00 01/19/2021
Arrest Date Arresting Agency Court Billing Agency Bond Type Bond Amount Warrant/Citation# Description
17:25:00 01/19/2021 FPD FWM FWPD $NaN XZ0412817 ASSAULT 4
17:25:00 01/19/2021 FPD FWM FWPD $NaN XZ0107071 ASSAULT 4
17:25:00 01/19/2021 FPD FWM FWPD $NaN XZ0493429 ASSAULT 4
LOMACK, DE ANDRE L 288070 20:17:19 01/04/2021
Arrest Date Arresting Agency Court Billing Agency Bond Type Bond Amount Warrant/Citation# Description
20:20:23 01/04/2021 FPD FWM FWPD Cash or Bond $5,000 XZ0497624 ASSAULT 4
20:20:23 01/04/2021 FPD FWM FWPD Cash or Bond $5,000 XZ0497624 MALICIOUS MISCHIEF 3RD-DV
20:20:23 01/04/2021 FPD FWM FWPD Cash or Bond $5,000 XZ0497624 INTERFERE W/REPORTING DOM VIOL
20:20:23 01/04/2021 FPD FWM FWPD Cash or Bond $5,000 XZ0826901 VIOl CT ORDER/RESTRICT CONTACT
20:20:23 01/04/2021 FPD FWM FWPD Cash or Bond $5,000 XZ0826901 VIOLATION OF PROTECTION ORDER
MCFETRIDGE, NANCY DIANE 288320 13:05:18 01/11/2021
Arrest Date Arresting Agency Court Billing Agency Bond Type Bond Amount Warrant/Citation# Description
13:07:20 01/11/2021 MAPL KEM MAPL No Bail $1,000,000,000 C21-001099 ASSAULT 4
MENDOZA, JOHN MICHAEL G 287265 19:06:21 01/08/2021
Arrest Date Arresting Agency Court Billing Agency Bond Type Bond Amount Warrant/Citation# Description
13:18:43 12/10/2020 MIPD MIM MIPD Cash or Bond $0 XZ0343030 DUI
13:18:43 12/10/2020 MIPD MIM MIPD Cash or Bond $0 XZ0343030 IGNITION INTERLOCK REQUIRED
NEFF, FRANK WAYNE 251220 10:43:01 11/05/2020
Arrest Date Arresting Agency Court Billing Agency Bond Type Bond Amount Warrant/Citation# Description
10:58:17 11/05/2020 NBPD IQM NBPD Cash or Bond $0 XZ0371583 DWLS (3)
10:58:17 11/05/2020 NBPD IQM NBPD Cash or Bond $0 XZ0371583 DUI
10:58:17 11/05/2020 NBPD IQM NBPD Cash or Bond $0 9Z0542552 THEFT 3RD DEG
10:58:17 11/05/2020 NBPD IQM NBPD Cash or Bond $0 9Z0843280 DUI
NJOROGE, CAROLINE  234179 18:15:00 01/05/2021
Arrest Date Arresting Agency Court Billing Agency Bond Type Bond Amount Warrant/Citation# Description
18:15:00 01/05/2021 FPD FWM FWPD $NaN 9Z0062303 ASSAULT 4
PORTMAN, ZACHARY BENJAMIN 282527 12:22:59 01/05/2021
Arrest Date Arresting Agency Court Billing Agency Bond Type Bond Amount Warrant/Citation# Description
12:30:13 01/05/2021 MIPD MIM MIPD Cash or Bond $5,000 1Z0108365 THEFT 3RD DEG
12:30:13 01/05/2021 MIPD MIM MIPD Cash or Bond $5,000 1Z0108365 VEHICLE PROWLING 2
12:30:13 01/05/2021 MIPD IQM ISS Cash or Bond $0 XZ0196212 POSS DRUG PARAPHEN
12:30:13 01/05/2021 MIPD IQM ISS Cash or Bond $0 XZ0196212 OBSTRUCTION OF PUBLIC SERVANT
12:30:13 01/05/2021 MIPD IQM ISS Cash or Bond $0 XZ0628772 THEFT 3RD DEG
ROCHE, MARK ANTHONY 287269 16:42:49 12/10/2020
Arrest Date Arresting Agency Court Billing Agency Bond Type Bond Amount Warrant/Citation# Description
16:46:02 12/10/2020 FPD FWM FWPD $NaN 9Z0385489 POSS STOLEN PROPERTY 3
SANTI, STEPHEN RAY 143048 21:30:00 12/22/2020
Arrest Date Arresting Agency Court Billing Agency Bond Type Bond Amount Warrant/Citation# Description
21:30:00 12/22/2020 ISS IQM ISS Cash or Bond $25,000 XZ0550057 VIOLATION OF PROTECTION ORDER
21:30:00 12/22/2020 ISS IQM ISS Cash or Bond $5,000 XZ456799 VIOLATION OF NO CONTACT ORDER
21:30:00 12/22/2020 ISS IQM ISS Cash or Bond $50,000 XZ0889624 VIOLATION OF PROTECTION ORDER
21:30:00 12/22/2020 ISS IQM ISS Cash or Bond $5,000 9Z0339766 VIOLATION OF NO CONTACT ORDER
21:30:00 12/22/2020 ISS IQM ISS Cash or Bond $50,000 XZ088962A VIOLATION OF NO CONTACT ORDER
21:30:00 12/22/2020 ISS IQM ISS Cash or Bond $5,000 XZ0889623 VIOLATION OF NO CONTACT ORDER
STEWART, MARK T 172918 13:00:00 01/13/2021
Arrest Date Arresting Agency Court Billing Agency Bond Type Bond Amount Warrant/Citation# Description
13:00:00 01/13/2021 ISS IQM ISS $NaN 8Z1049669 DUI - GM
TACKETT, BRUCE WAYNE 286610 17:23:11 11/17/2020
Arrest Date Arresting Agency Court Billing Agency Bond Type Bond Amount Warrant/Citation# Description
17:26:10 11/17/2020 FPD FWM FWPD Cash or Bond $100,000 XZ0845463 DWLS (2)
17:26:10 11/17/2020 FPD FWM FWPD Cash or Bond $100,000 XZ0845463 IGNITION INTERLOCK REQUIRED
17:26:10 11/17/2020 FPD FWM FWPD Cash or Bond $100,000 XZ0845463 DUI
TOMBARGE, DAVID WILLIAM 189085 23:52:20 01/13/2021
Arrest Date Arresting Agency Court Billing Agency Bond Type Bond Amount Warrant/Citation# Description
23:54:39 01/13/2021 NBPD IQM NBPD No Bail $15,000 C31010 DUI
23:54:39 01/13/2021 NBPD IQM NBPD Cash or Bond $5,000 C31011 OBSTRUCTING
23:54:39 01/13/2021 NBPD IQM NBPD Cash or Bond $5,000 C31011 MALICIOUS MISCHIEF 3RD
TRUCHON, JOHN ROBERT 109449 22:31:32 01/21/2021
Arrest Date Arresting Agency Court Billing Agency Bond Type Bond Amount Warrant/Citation# Description
22:42:20 01/21/2021 NBPD IQM NBPD No Bail $1,000,000,000 1A0192339 HARASSMENT
22:42:20 01/21/2021 NBPD IQM NBPD Cash or Bond $500 9Z0525168 OBSTRUCTION OF PUBLIC SERVANT
22:42:20 01/21/2021 NBPD IQM NBPD Cash or Bond $500 9Z0525168 RECKLESS DRIVING
22:42:20 01/21/2021 NBPD IQM NBPD Cash or Bond $250 XZ0750475 THEFT 3RD DEG
22:42:20 01/21/2021 NBPD IQM NBPD Cash or Bond $250 XZ0750475 VEHICLE PROWLING 2
22:42:20 01/21/2021 NBPD IQM NBPD Cash or Bond $500 XZ0656099 FALSE STATEMENT PUBLIC SERVANT
22:42:20 01/21/2021 NBPD IQM SNO Cash or Bond $500 8Z0892476 ASSAULT 4
WANJOHI, ISAIAH WACHIRA 283057 16:57:48 08/05/2020
Arrest Date Arresting Agency Court Billing Agency Bond Type Bond Amount Warrant/Citation# Description
17:00:38 08/05/2020 FPD FWM FWPD $NaN 9Z0916314 DWLS (2)
17:00:38 08/05/2020 FPD FWM FWPD $NaN 9Z0916314 DUI
17:00:38 08/05/2020 FPD FWM FWPD $NaN 9Z0916314 IGNITION INTERLOCK REQUIRED
WASHINGTON, IVORY LEE 288331 16:20:00 01/11/2021
Arrest Date Arresting Agency Court Billing Agency Bond Type Bond Amount Warrant/Citation# Description
15:00:00 01/11/2021 FPD FWM FWPD Cash or Bond $1,500 1A0061979 DANGEROUS WEAPON VIOL
15:00:00 01/11/2021 FPD FWM FWPD Cash or Bond $1,500 1A0061979 DISORDERLY CONDUCT
WEBSTER, TYLER JAMES 160649 15:00:00 11/20/2020
Arrest Date Arresting Agency Court Billing Agency Bond Type Bond Amount Warrant/Citation# Description
14:30:00 11/20/2020 ISS IQM ISS Cash or Bond $10,000 C14168 VIOLATION OF PROTECTION ORDER
14:30:00 11/20/2020 ISS IQM ISS Cash or Bond $10,000 XZ582280 ASSAULT 4
14:30:00 11/20/2020 ISS IQM ISS Cash or Bond $1,000 XZ424026 POSS DRUG PARAPHEN
WILHITE, TEELA  288639 17:25:00 01/19/2021
Arrest Date Arresting Agency Court Billing Agency Bond Type Bond Amount Warrant/Citation# Description
17:25:00 01/19/2021 FPD FWM FWPD $NaN 9Z0528475 ASSAULT 4
17:25:00 01/19/2021 FPD FWM FWPD $NaN 9Z1011162 VIOLATION OF NO CONTACT ORDER
17:25:00 01/19/2021 FPD FWM FWPD $NaN CACP19006 HARASSMENT